Wellersburg, Pennsylvania
Current Conditions -  °F | °C
As of 10:02 PM on Sunday 23 Nov 2014 (Local Time) from KCBE Reporting Station
Overcast Overcast  
Wind Chill: 50°   Ceiling: 1000
Heat Index: 50°   Visibility: 5mi
Dew Point: 45°   Wind: 0mph
Humidity: 82%   Direction: NA
Pressure: 29.86"   Gusts: NA
Location:  39.73°N, 78.85°W
Report Text: KCBE 240302Z AUTO 00000KT 5SM BKN010 BKN015 OVC021 10/07 A2986 RMK AO1
Loading
Personal Weather Stations






























Interactive Weather Map New forecast layout! Learn more

10-Day Weather Forecast

Advertisements
Track Severe Weather on mobile